createdAt,value
2023-04-12T00:02:24.293Z,100224.00
2023-04-12T00:04:55.635Z,100242.00
2023-04-12T00:07:24.073Z,100225.00
2023-04-12T00:09:54.860Z,100223.00
2023-04-12T00:12:22.535Z,100218.00
2023-04-12T00:14:51.644Z,100212.00
2023-04-12T00:17:19.706Z,100205.00
2023-04-12T00:19:49.917Z,100188.00
2023-04-12T00:22:17.649Z,100175.00
2023-04-12T00:24:47.309Z,100171.00
2023-04-12T00:27:14.990Z,100173.00
2023-04-12T00:29:42.659Z,100168.00
2023-04-12T00:32:11.675Z,100165.00
2023-04-12T00:34:39.388Z,100157.00
2023-04-12T00:37:07.084Z,100164.00
2023-04-12T00:39:34.852Z,100158.00
2023-04-12T00:42:05.110Z,100153.00
2023-04-12T00:44:33.830Z,100148.00
2023-04-12T00:47:02.691Z,100149.00
2023-04-12T00:49:32.355Z,100138.00
2023-04-12T00:52:03.252Z,100140.00
2023-04-12T00:54:32.119Z,100135.00
2023-04-12T00:57:00.807Z,100130.00
2023-04-12T00:59:28.965Z,100132.00
2023-04-12T01:01:57.551Z,100124.00
2023-04-12T01:04:26.315Z,100122.00
2023-04-12T01:07:10.113Z,100128.00
2023-04-12T01:09:47.864Z,100123.00
2023-04-12T01:12:26.434Z,100122.00
2023-04-12T01:15:01.605Z,100115.00
2023-04-12T01:17:31.814Z,100115.00
2023-04-12T01:20:07.414Z,100105.00
2023-04-12T01:23:14.561Z,100108.00
2023-04-12T01:26:00.929Z,100091.00
2023-04-12T01:28:34.592Z,100085.00
2023-04-12T01:31:04.372Z,100099.00
2023-04-12T01:33:33.122Z,100085.00
2023-04-12T01:36:02.841Z,100080.00
2023-04-12T01:38:32.162Z,100074.00
2023-04-12T01:41:00.320Z,100076.00
2023-04-12T01:43:28.129Z,100067.00
2023-04-12T01:45:57.303Z,100056.00
2023-04-12T01:48:25.111Z,100038.00
2023-04-12T01:51:05.548Z,100037.00
2023-04-12T01:53:44.725Z,100037.00
2023-04-12T01:56:13.261Z,100038.00
2023-04-12T01:58:43.784Z,100040.00
2023-04-12T02:01:15.406Z,100033.00
2023-04-12T02:03:44.145Z,100026.00
2023-04-12T02:06:12.993Z,100029.00
2023-04-12T02:08:40.751Z,100023.00
2023-04-12T02:11:12.525Z,100032.00
2023-04-12T02:13:40.244Z,100026.00
2023-04-12T02:16:10.905Z,100025.00
2023-04-12T02:18:41.415Z,100011.00
2023-04-12T02:21:09.275Z,100008.00
2023-04-12T02:23:37.004Z,99999.00
2023-04-12T02:26:04.768Z,99991.00
2023-04-12T02:28:34.549Z,99994.00
2023-04-12T02:31:02.312Z,99976.00
2023-04-12T02:33:30.815Z,99973.00
2023-04-12T02:36:02.519Z,99967.00
2023-04-12T02:38:31.298Z,99953.00
2023-04-12T02:40:58.966Z,99952.00
2023-04-12T02:43:26.701Z,99957.00
2023-04-12T02:45:54.423Z,99951.00
2023-04-12T02:48:22.163Z,99947.00
2023-04-12T02:50:49.906Z,99938.00
2023-04-12T02:53:18.954Z,99931.00
2023-04-12T02:55:46.682Z,99940.00
2023-04-12T02:58:14.392Z,99924.00
2023-04-12T03:00:43.914Z,99923.00
2023-04-12T03:03:11.792Z,99919.00
2023-04-12T03:05:39.601Z,99925.00
2023-04-12T03:08:07.651Z,99918.00
2023-04-12T03:10:36.724Z,99905.00
2023-04-12T03:13:04.994Z,99900.00
2023-04-12T03:15:33.240Z,99900.00
2023-04-12T03:18:01.061Z,99892.00
2023-04-12T03:20:29.508Z,99893.00
2023-04-12T03:22:57.324Z,99885.00
2023-04-12T03:25:25.032Z,99882.00
2023-04-12T03:27:54.131Z,99867.00
2023-04-12T03:30:22.311Z,99872.00
2023-04-12T03:32:50.000Z,99867.00
2023-04-12T03:35:17.835Z,99853.00
2023-04-12T03:37:45.648Z,99848.00
2023-04-12T03:40:14.205Z,99849.00
2023-04-12T03:42:41.907Z,99831.00
2023-04-12T03:45:12.206Z,99830.00
2023-04-12T03:47:40.003Z,99825.00
2023-04-12T03:50:12.246Z,99822.00
2023-04-12T03:52:40.520Z,99826.00
2023-04-12T03:55:09.122Z,99821.00
2023-04-12T03:57:36.871Z,99808.00
2023-04-12T04:00:05.820Z,99801.00
2023-04-12T04:02:35.477Z,99803.00
2023-04-12T04:05:03.969Z,99787.00
2023-04-12T04:07:33.064Z,99793.00
2023-04-12T04:10:01.155Z,99781.00
2023-04-12T04:12:28.941Z,99779.00
2023-04-12T04:14:56.709Z,99775.00
2023-04-12T04:17:24.506Z,99763.00
2023-04-12T04:19:53.674Z,99769.00
2023-04-12T04:22:22.823Z,99768.00
2023-04-12T04:24:51.653Z,99765.00
2023-04-12T04:27:20.505Z,99757.00
2023-04-12T04:29:48.416Z,99764.00
2023-04-12T04:32:16.254Z,99749.00
2023-04-12T04:34:44.664Z,99748.00
2023-04-12T04:37:14.329Z,99757.00
2023-04-12T04:39:42.022Z,99743.00
2023-04-12T04:42:09.739Z,99742.00
2023-04-12T04:44:37.451Z,99743.00
2023-04-12T04:47:06.841Z,99747.00
2023-04-12T04:49:35.314Z,99731.00
2023-04-12T04:52:02.980Z,99743.00
2023-04-12T04:54:33.070Z,99731.00
2023-04-12T04:57:01.612Z,99736.00
2023-04-12T04:59:29.713Z,99723.00
2023-04-12T05:01:57.419Z,99725.00
2023-04-12T05:04:25.457Z,99715.00
2023-04-12T05:06:53.677Z,99733.00
2023-04-12T05:09:21.833Z,99728.00
2023-04-12T05:11:50.939Z,99718.00
2023-04-12T05:14:19.112Z,99715.00
2023-04-12T05:16:46.909Z,99713.00
2023-04-12T05:19:14.640Z,99709.00
2023-04-12T05:21:42.398Z,99705.00
2023-04-12T05:24:10.453Z,99705.00
2023-04-12T05:26:38.208Z,99700.00
2023-04-12T05:29:07.686Z,99685.00
2023-04-12T05:31:35.400Z,99697.00
2023-04-12T05:34:03.124Z,99690.00
2023-04-12T05:36:31.859Z,99691.00
2023-04-12T05:39:00.119Z,99676.00
2023-04-12T05:41:27.824Z,99682.00
2023-04-12T05:43:55.770Z,99673.00
2023-04-12T05:46:24.962Z,99667.00
2023-04-12T05:48:52.678Z,99665.00
2023-04-12T05:51:30.614Z,99667.00
2023-04-12T05:54:03.951Z,99656.00
2023-04-12T05:56:31.640Z,99656.00
2023-04-12T05:59:01.205Z,99664.00
2023-04-12T06:01:32.499Z,99656.00
2023-04-12T06:04:02.344Z,99654.00
2023-04-12T06:06:31.489Z,99652.00
2023-04-12T06:09:00.641Z,99644.00
2023-04-12T06:11:28.468Z,99642.00
2023-04-12T06:13:56.357Z,99637.00
2023-04-12T06:16:24.157Z,99628.00
2023-04-12T06:18:53.309Z,99632.00
2023-04-12T06:21:21.217Z,99629.00
2023-04-12T06:23:48.915Z,99632.00
2023-04-12T06:26:18.601Z,99626.00
2023-04-12T06:28:46.869Z,99619.00
2023-04-12T06:31:14.701Z,99624.00
2023-04-12T06:33:42.448Z,99626.00
2023-04-12T06:36:12.647Z,99614.00
2023-04-12T06:38:40.579Z,99614.00
2023-04-12T06:41:08.415Z,99593.00
2023-04-12T06:43:36.731Z,99595.00
2023-04-12T06:46:04.689Z,99589.00
2023-04-12T06:48:32.392Z,99588.00
2023-04-12T06:51:00.407Z,99576.00
2023-04-12T06:53:30.806Z,99563.00
2023-04-12T06:55:58.567Z,99565.00
2023-04-12T06:58:26.466Z,99561.00
2023-04-12T07:00:54.198Z,99551.00
2023-04-12T07:03:24.665Z,99561.00
2023-04-12T07:05:56.438Z,99545.00
2023-04-12T07:08:24.094Z,99550.00
2023-04-12T07:10:55.914Z,99548.00
2023-04-12T07:13:23.628Z,99547.00
2023-04-12T07:15:51.764Z,99548.00
2023-04-12T07:18:19.899Z,99541.00
2023-04-12T07:20:47.948Z,99529.00
2023-04-12T07:23:16.022Z,99513.00
2023-04-12T07:25:43.830Z,99514.00
2023-04-12T07:28:12.908Z,99524.00
2023-04-12T07:30:41.345Z,99521.00
2023-04-12T07:33:19.225Z,99513.00
2023-04-12T07:35:47.576Z,99500.00
2023-04-12T07:38:16.868Z,99502.00
2023-04-12T07:40:47.587Z,99494.00
2023-04-12T07:43:18.917Z,99491.00
2023-04-12T07:45:46.928Z,99500.00
2023-04-12T07:48:15.080Z,99481.00
2023-04-12T07:50:42.801Z,99475.00
2023-04-12T07:53:21.541Z,99472.00
2023-04-12T07:55:49.768Z,99463.00
2023-04-12T07:58:19.644Z,99454.00
2023-04-12T08:00:47.729Z,99452.00
2023-04-12T08:03:16.993Z,99443.00
2023-04-12T08:05:45.339Z,99463.00
2023-04-12T08:08:13.245Z,99430.00
2023-04-12T08:10:41.428Z,99428.00
2023-04-12T08:13:09.241Z,99429.00
2023-04-12T08:15:38.716Z,99425.00
2023-04-12T08:18:06.586Z,99416.00
2023-04-12T08:20:34.423Z,99403.00
2023-04-12T08:23:02.215Z,99400.00
2023-04-12T08:25:29.962Z,99408.00
2023-04-12T08:27:57.674Z,99408.00
2023-04-12T08:30:27.054Z,99401.00
2023-04-12T08:32:56.421Z,99409.00
2023-04-12T08:35:25.078Z,99393.00
2023-04-12T08:37:53.011Z,99412.00
2023-04-12T08:40:21.805Z,99407.00
2023-04-12T08:42:49.650Z,99399.00
2023-04-12T08:45:17.345Z,99397.00
2023-04-12T08:47:46.622Z,99401.00
2023-04-12T08:50:17.295Z,99397.00
2023-04-12T08:52:45.065Z,99398.00
2023-04-12T08:55:13.762Z,99394.00
2023-04-12T08:57:43.261Z,99378.00
2023-04-12T09:00:12.996Z,99378.00
2023-04-12T09:02:43.381Z,99382.00
2023-04-12T09:05:12.362Z,99377.00
2023-04-12T09:07:41.641Z,99377.00
2023-04-12T09:10:09.958Z,99370.00
2023-04-12T09:12:46.892Z,99363.00
2023-04-12T09:15:18.372Z,99369.00
2023-04-12T09:17:49.128Z,99352.00
2023-04-12T09:20:25.691Z,99361.00
2023-04-12T09:22:55.687Z,99354.00
2023-04-12T09:25:41.062Z,99346.00
2023-04-12T09:28:23.767Z,99349.00
2023-04-12T09:30:52.686Z,99350.00
2023-04-12T09:33:23.025Z,99347.00
2023-04-12T09:35:51.612Z,99338.00
2023-04-12T09:38:20.909Z,99338.00
2023-04-12T09:40:50.121Z,99340.00
2023-04-12T09:43:17.951Z,99330.00
2023-04-12T09:45:45.961Z,99332.00
2023-04-12T09:48:20.852Z,99329.00
2023-04-12T09:50:49.329Z,99326.00
2023-04-12T09:53:19.364Z,99309.00
2023-04-12T09:55:50.823Z,99313.00
2023-04-12T09:58:21.309Z,99322.00
2023-04-12T10:00:52.452Z,99310.00
2023-04-12T10:03:20.431Z,99308.00
2023-04-12T10:05:48.879Z,99291.00
2023-04-12T10:08:17.900Z,99289.00
2023-04-12T10:10:46.377Z,99283.00
2023-04-12T10:13:16.672Z,99290.00
2023-04-12T10:15:46.853Z,99281.00
2023-04-12T10:18:17.426Z,99272.00
2023-04-12T10:20:46.674Z,99266.00
2023-04-12T10:23:15.370Z,99274.00
2023-04-12T10:25:46.385Z,99272.00
2023-04-12T10:28:17.447Z,99248.00
2023-04-12T10:30:47.447Z,99264.00
2023-04-12T10:33:17.808Z,99263.00
2023-04-12T10:35:54.513Z,99251.00
2023-04-12T10:38:24.944Z,99253.00
2023-04-12T10:41:09.388Z,99246.00
2023-04-12T10:43:38.764Z,99255.00
2023-04-12T10:46:06.977Z,99221.00
2023-04-12T10:48:36.245Z,99250.00
2023-04-12T10:51:15.158Z,99225.00
2023-04-12T10:53:42.979Z,99231.00
2023-04-12T10:56:36.138Z,99232.00
2023-04-12T10:59:05.905Z,99213.00
2023-04-12T11:01:36.747Z,99227.00
2023-04-12T11:04:17.578Z,99209.00
2023-04-12T11:06:52.370Z,99208.00
2023-04-12T11:09:25.397Z,99211.00
2023-04-12T11:11:57.121Z,99216.00
2023-04-12T11:14:30.158Z,99220.00
2023-04-12T11:17:25.468Z,99217.00
2023-04-12T11:19:59.391Z,99222.00
2023-04-12T11:22:30.019Z,99214.00
2023-04-12T11:24:59.638Z,99221.00
2023-04-12T11:27:29.080Z,99201.00
2023-04-12T11:29:59.384Z,99209.00
2023-04-12T11:32:28.395Z,99196.00
2023-04-12T11:34:57.648Z,99184.00
2023-04-12T11:37:27.119Z,99183.00
2023-04-12T11:39:58.351Z,99181.00
2023-04-12T11:42:28.130Z,99188.00
2023-04-12T11:44:59.769Z,99180.00
2023-04-12T11:47:31.151Z,99162.00
2023-04-12T11:50:00.314Z,99177.00
2023-04-12T11:52:32.529Z,99159.00
2023-04-12T11:55:02.306Z,99167.00
2023-04-12T11:57:30.967Z,99172.00
2023-04-12T12:00:00.522Z,99172.00
2023-04-12T12:02:33.066Z,99152.00
2023-04-12T12:05:04.517Z,99153.00
2023-04-12T12:07:33.022Z,99153.00
2023-04-12T12:10:01.966Z,99155.00
2023-04-12T12:12:29.688Z,99147.00
2023-04-12T12:15:00.615Z,99141.00
2023-04-12T12:17:28.794Z,99146.00
2023-04-12T12:19:58.803Z,99145.00
2023-04-12T12:22:28.420Z,99139.00
2023-04-12T12:24:58.760Z,99120.00
2023-04-12T12:27:34.861Z,99141.00
2023-04-12T12:30:04.393Z,99139.00
2023-04-12T12:32:35.714Z,99140.00
2023-04-12T12:35:04.688Z,99136.00
2023-04-12T12:37:33.781Z,99116.00
2023-04-12T12:40:11.404Z,99127.00
2023-04-12T12:42:46.520Z,99107.00
2023-04-12T12:45:14.573Z,99104.00
2023-04-12T12:47:51.701Z,99097.00
2023-04-12T12:50:22.056Z,99101.00
2023-04-12T12:52:54.296Z,99098.00
2023-04-12T12:55:23.177Z,99100.00
2023-04-12T12:58:06.654Z,99098.00
2023-04-12T13:00:35.044Z,99094.00
2023-04-12T13:03:03.377Z,99092.00
2023-04-12T13:05:31.525Z,99084.00
2023-04-12T13:08:00.649Z,99094.00
2023-04-12T13:10:28.382Z,99085.00
2023-04-12T13:12:56.106Z,99079.00
2023-04-12T13:15:24.823Z,99083.00
2023-04-12T13:17:53.751Z,99088.00
2023-04-12T13:20:21.664Z,99084.00
2023-04-12T13:22:49.457Z,99091.00
2023-04-12T13:25:19.708Z,99076.00
2023-04-12T13:27:48.614Z,99077.00
2023-04-12T13:30:17.410Z,99088.00
2023-04-12T13:32:45.368Z,99082.00
2023-04-12T13:35:13.355Z,99066.00
2023-04-12T13:37:41.901Z,99072.00
2023-04-12T13:40:10.683Z,99072.00
2023-04-12T13:42:39.792Z,99066.00
2023-04-12T13:45:08.827Z,99070.00
2023-04-12T13:47:36.536Z,99071.00
2023-04-12T13:50:05.382Z,99071.00
2023-04-12T13:52:33.112Z,99068.00
2023-04-12T13:55:00.852Z,99064.00
2023-04-12T13:57:28.582Z,99044.00
2023-04-12T13:59:57.803Z,99040.00
2023-04-12T14:02:27.085Z,99036.00
2023-04-12T14:04:56.831Z,99043.00
2023-04-12T14:07:25.437Z,99048.00
2023-04-12T14:09:53.662Z,99058.00
2023-04-12T14:12:21.384Z,99038.00
2023-04-12T14:14:49.198Z,99033.00
2023-04-12T14:17:18.319Z,99028.00
2023-04-12T14:19:46.106Z,99025.00
2023-04-12T14:22:13.808Z,99029.00
2023-04-12T14:24:41.679Z,99010.00
2023-04-12T14:27:09.822Z,99023.00
2023-04-12T14:29:39.477Z,99032.00
2023-04-12T14:32:07.324Z,99014.00
2023-04-12T14:34:37.997Z,99010.00
2023-04-12T14:37:06.346Z,99004.00
2023-04-12T14:39:34.409Z,99007.00
2023-04-12T14:42:02.917Z,99004.00
2023-04-12T14:44:31.429Z,99009.00
2023-04-12T14:46:59.138Z,98986.00
2023-04-12T14:49:30.790Z,98982.00
2023-04-12T14:52:01.825Z,98978.00
2023-04-12T14:54:29.689Z,98971.00
2023-04-12T14:56:57.771Z,98969.00
2023-04-12T14:59:27.169Z,98984.00
2023-04-12T15:01:55.014Z,98977.00
2023-04-12T15:04:22.961Z,98981.00
2023-04-12T15:06:51.064Z,98989.00
2023-04-12T15:09:20.974Z,98980.00
2023-04-12T15:11:54.946Z,98994.00
2023-04-12T15:14:23.964Z,98997.00
2023-04-12T15:16:51.771Z,99002.00
2023-04-12T15:19:23.286Z,98992.00
2023-04-12T15:21:52.268Z,98988.00
2023-04-12T15:24:22.360Z,98980.00
2023-04-12T15:26:52.415Z,98979.00
2023-04-12T15:29:22.138Z,98994.00
2023-04-12T15:31:50.358Z,98986.00
2023-04-12T15:34:18.441Z,98979.00
2023-04-12T15:36:46.418Z,98967.00
2023-04-12T15:39:15.032Z,98977.00
2023-04-12T15:41:44.350Z,98981.00
2023-04-12T15:44:13.248Z,98968.00
2023-04-12T15:46:42.429Z,98962.00
2023-04-12T15:49:10.779Z,98955.00
2023-04-12T15:51:38.762Z,98947.00
2023-04-12T15:54:07.150Z,98954.00
2023-04-12T15:56:35.486Z,98953.00
2023-04-12T15:59:04.636Z,98958.00
2023-04-12T16:01:33.507Z,98957.00
2023-04-12T16:04:03.047Z,98954.00
2023-04-12T16:06:34.698Z,98969.00
2023-04-12T16:09:04.801Z,98957.00
2023-04-12T16:11:33.916Z,98949.00
2023-04-12T16:14:01.961Z,98956.00
2023-04-12T16:16:31.208Z,98951.00
2023-04-12T16:19:00.143Z,98954.00
2023-04-12T16:21:30.408Z,98941.00
2023-04-12T16:23:58.582Z,98937.00
2023-04-12T16:26:27.175Z,98953.00
2023-04-12T16:28:54.956Z,98927.00
2023-04-12T16:31:26.121Z,98940.00
2023-04-12T16:33:55.357Z,98940.00
2023-04-12T16:36:24.497Z,98942.00
2023-04-12T16:38:54.504Z,98942.00
2023-04-12T16:41:23.059Z,98947.00
2023-04-12T16:43:53.678Z,98956.00
2023-04-12T16:46:22.155Z,98940.00
2023-04-12T16:48:50.161Z,98968.00
2023-04-12T16:51:19.472Z,98963.00
2023-04-12T16:53:47.307Z,98961.00
2023-04-12T16:56:15.120Z,98963.00
2023-04-12T16:58:43.417Z,98970.00
2023-04-12T17:01:16.812Z,98965.00
2023-04-12T17:03:45.521Z,98953.00
2023-04-12T17:06:13.416Z,98950.00
2023-04-12T17:08:43.580Z,98957.00
2023-04-12T17:11:11.414Z,98960.00
2023-04-12T17:13:39.329Z,98940.00
2023-04-12T17:16:07.911Z,98923.00
2023-04-12T17:18:36.878Z,98941.00
2023-04-12T17:21:04.906Z,98947.00
2023-04-12T17:23:32.609Z,98951.00
2023-04-12T17:26:03.941Z,98954.00
2023-04-12T17:28:34.576Z,98961.00
2023-04-12T17:31:02.465Z,98971.00
2023-04-12T17:33:30.300Z,98976.00
2023-04-12T17:35:58.056Z,98965.00
2023-04-12T17:38:25.799Z,98989.00
2023-04-12T17:40:53.694Z,98975.00
2023-04-12T17:43:22.805Z,98976.00
2023-04-12T17:45:50.593Z,98987.00
2023-04-12T17:48:18.429Z,98985.00
2023-04-12T17:50:47.012Z,98995.00
2023-04-12T17:53:14.772Z,98996.00
2023-04-12T17:55:43.429Z,98991.00
2023-04-12T17:58:11.477Z,98985.00
2023-04-12T18:00:40.565Z,98944.00
2023-04-12T18:03:11.265Z,98943.00
2023-04-12T18:05:39.486Z,98967.00
2023-04-12T18:08:07.279Z,98969.00
2023-04-12T18:10:35.227Z,98975.00
2023-04-12T18:13:03.024Z,98965.00
2023-04-12T18:15:31.284Z,98996.00
2023-04-12T18:18:00.498Z,99003.00
2023-04-12T18:20:29.028Z,98980.00
2023-04-12T18:22:56.800Z,99002.00
2023-04-12T18:25:24.825Z,99022.00
2023-04-12T18:27:52.563Z,99039.00
2023-04-12T18:30:20.719Z,99075.00
2023-04-12T18:32:48.568Z,99079.00
2023-04-12T18:35:17.939Z,99086.00
2023-04-12T18:37:46.833Z,99096.00
2023-04-12T18:40:15.934Z,99098.00
2023-04-12T18:42:44.447Z,99117.00
2023-04-12T18:45:12.588Z,99106.00
2023-04-12T18:47:40.674Z,99121.00
2023-04-12T18:50:09.976Z,99133.00
2023-04-12T18:52:39.186Z,99143.00
2023-04-12T18:55:08.145Z,99131.00
2023-04-12T18:57:35.897Z,99137.00
2023-04-12T19:00:10.360Z,99134.00
2023-04-12T19:02:38.468Z,99152.00
2023-04-12T19:05:06.483Z,99149.00
2023-04-12T19:07:34.228Z,99147.00
2023-04-12T19:10:04.072Z,99147.00
2023-04-12T19:12:32.022Z,99129.00
2023-04-12T19:14:59.984Z,99151.00
2023-04-12T19:17:28.603Z,99152.00
2023-04-12T19:19:56.808Z,99152.00
2023-04-12T19:22:27.708Z,99143.00
2023-04-12T19:24:55.866Z,99126.00
2023-04-12T19:27:25.021Z,99151.00
2023-04-12T19:29:53.519Z,99152.00
2023-04-12T19:32:22.003Z,99131.00
2023-04-12T19:34:51.109Z,99147.00
2023-04-12T19:37:18.936Z,99156.00
2023-04-12T19:39:46.667Z,99124.00
2023-04-12T19:42:15.924Z,99140.00
2023-04-12T19:44:45.097Z,99145.00
2023-04-12T19:47:12.803Z,99150.00
2023-04-12T19:49:40.512Z,99113.00
2023-04-12T19:52:08.322Z,99129.00
2023-04-12T19:54:36.729Z,99139.00
2023-04-12T19:57:05.491Z,99148.00
2023-04-12T19:59:34.366Z,99133.00
2023-04-12T20:02:03.614Z,99152.00
2023-04-12T20:04:31.671Z,99141.00
2023-04-12T20:07:00.323Z,99160.00
2023-04-12T20:09:28.181Z,99162.00
2023-04-12T20:11:56.562Z,99158.00
2023-04-12T20:14:26.337Z,99166.00
2023-04-12T20:16:56.729Z,99152.00
2023-04-12T20:19:28.578Z,99175.00
2023-04-12T20:22:01.684Z,99183.00
2023-04-12T20:24:30.447Z,99157.00
2023-04-12T20:26:58.259Z,99172.00
2023-04-12T20:29:26.561Z,99162.00
2023-04-12T20:31:55.644Z,99169.00
2023-04-12T20:34:26.608Z,99169.00
2023-04-12T20:36:55.299Z,99160.00
2023-04-12T20:39:23.530Z,99173.00
2023-04-12T20:41:53.506Z,99171.00
2023-04-12T20:44:21.275Z,99157.00
2023-04-12T20:46:49.118Z,99168.00
2023-04-12T20:49:17.014Z,99169.00
2023-04-12T20:51:47.090Z,99166.00
2023-04-12T20:54:15.259Z,99179.00
2023-04-12T20:56:43.050Z,99170.00
2023-04-12T20:59:11.437Z,99175.00
2023-04-12T21:01:39.258Z,99177.00
2023-04-12T21:04:08.509Z,99174.00
2023-04-12T21:06:37.531Z,99185.00
2023-04-12T21:09:06.906Z,99171.00
2023-04-12T21:11:34.753Z,99179.00
2023-04-12T21:14:02.440Z,99151.00
2023-04-12T21:16:30.750Z,99178.00
2023-04-12T21:18:59.511Z,99173.00
2023-04-12T21:21:28.479Z,99176.00
2023-04-12T21:23:56.248Z,99179.00
2023-04-12T21:26:25.707Z,99178.00
2023-04-12T21:28:53.666Z,99177.00
2023-04-12T21:31:21.890Z,99190.00
2023-04-12T21:33:50.456Z,99189.00
2023-04-12T21:36:19.793Z,99177.00
2023-04-12T21:38:47.664Z,99187.00
2023-04-12T21:41:15.398Z,99191.00
2023-04-12T21:43:47.347Z,99194.00
2023-04-12T21:46:15.090Z,99194.00
2023-04-12T21:48:42.854Z,99198.00
2023-04-12T21:51:10.734Z,99194.00
2023-04-12T21:53:38.566Z,99192.00
2023-04-12T21:56:06.989Z,99196.00
2023-04-12T21:58:34.736Z,99193.00
2023-04-12T22:01:03.926Z,99188.00
2023-04-12T22:03:32.186Z,99195.00
2023-04-12T22:06:04.895Z,99195.00
2023-04-12T22:08:34.081Z,99186.00
2023-04-12T22:11:02.377Z,99188.00
2023-04-12T22:13:30.708Z,99193.00
2023-04-12T22:15:58.809Z,99196.00
2023-04-12T22:18:28.442Z,99204.00
2023-04-12T22:20:57.770Z,99192.00
2023-04-12T22:23:25.687Z,99173.00
2023-04-12T22:25:58.220Z,99187.00
2023-04-12T22:28:26.011Z,99187.00
2023-04-12T22:30:53.825Z,99189.00
2023-04-12T22:33:22.385Z,99180.00
2023-04-12T22:35:51.506Z,99188.00
2023-04-12T22:38:19.385Z,99159.00
2023-04-12T22:40:47.460Z,99185.00
2023-04-12T22:43:18.408Z,99156.00
2023-04-12T22:45:46.961Z,99171.00
2023-04-12T22:48:15.895Z,99186.00
2023-04-12T22:50:45.094Z,99182.00
2023-04-12T22:53:15.860Z,99188.00
2023-04-12T22:55:44.893Z,99188.00
2023-04-12T22:58:12.662Z,99182.00
2023-04-12T23:00:41.014Z,99190.00
2023-04-12T23:03:10.901Z,99189.00
2023-04-12T23:05:38.871Z,99191.00
2023-04-12T23:08:06.868Z,99184.00
2023-04-12T23:10:36.035Z,99184.00
2023-04-12T23:13:04.245Z,99180.00
2023-04-12T23:15:35.271Z,99184.00
2023-04-12T23:18:04.479Z,99179.00
2023-04-12T23:20:32.886Z,99193.00
2023-04-12T23:23:00.675Z,99186.00
2023-04-12T23:25:38.849Z,99168.00
2023-04-12T23:28:13.501Z,99194.00
2023-04-12T23:30:43.934Z,99174.00
2023-04-12T23:33:12.213Z,99187.00
2023-04-12T23:35:41.554Z,99187.00
2023-04-12T23:38:10.064Z,99191.00
2023-04-12T23:40:38.327Z,99201.00
2023-04-12T23:43:09.112Z,99194.00
2023-04-12T23:45:39.471Z,99177.00
2023-04-12T23:48:07.535Z,99184.00
2023-04-12T23:50:35.467Z,99166.00
2023-04-12T23:53:03.632Z,99183.00
2023-04-12T23:55:31.686Z,99189.00
2023-04-12T23:57:59.460Z,99189.00
